Time;durP1;ratioP1;P1;durP2;ratioP2;P2;SDS_P1;SDS_P2;PMS_P1;PMS_P2;Temp;Humidity;BMP_temperature;BMP_pressure;BME280_temperature;BME280_humidity;BME280_pressure;Samples;Min_cycle;Max_cycle;Signal;HPM_P1;HPM_P2
2022/12/15 06:50:45;;;;;;;2.95;2.75;;;;;;;16.43;46.93;97757.16;1938219;72;27922;-47
2022/12/15 06:53:39;;;;;;;2.80;2.60;;;;;;;16.89;46.06;97767.17;1867773;75;28108;-46
2022/12/15 06:56:31;;;;;;;2.72;2.50;;;;;;;17.78;44.41;97769.19;1869295;75;28168;-50
2022/12/15 06:59:19;;;;;;;2.87;2.67;;;;;;;18.64;42.99;97771.97;1884176;75;28085;-47
2022/12/15 07:02:10;;;;;;;2.83;2.57;;;;;;;19.28;41.80;97782.06;1879201;75;28171;-47
2022/12/15 07:04:59;;;;;;;2.70;2.50;;;;;;;19.80;40.84;97789.20;1869529;75;28125;-50
2022/12/15 07:07:48;;;;;;;6.20;2.60;;;;;;;20.16;40.07;97783.55;1870958;75;38513;-50
2022/12/15 07:10:39;;;;;;;2.95;2.70;;;;;;;20.44;39.48;97768.23;1895373;75;28184;-51
2022/12/15 07:13:27;;;;;;;2.92;2.60;;;;;;;20.68;38.98;97774.95;1877260;75;28146;-52
2022/12/15 07:16:16;;;;;;;2.90;2.60;;;;;;;20.90;38.52;97769.89;1869322;76;28224;-52
2022/12/15 07:19:04;;;;;;;2.87;2.67;;;;;;;21.06;38.11;97770.27;1871831;75;28183;-50
2022/12/15 07:21:55;;;;;;;2.80;2.60;;;;;;;21.19;37.79;97769.23;1874620;75;28215;-51
2022/12/15 07:24:42;;;;;;;2.92;2.50;;;;;;;21.29;37.63;97762.45;1881297;75;28216;-52
2022/12/15 07:27:31;;;;;;;3.03;2.73;;;;;;;21.43;37.47;97761.94;1885643;75;28243;-51
2022/12/15 07:30:19;;;;;;;2.72;2.52;;;;;;;21.49;37.33;97767.17;1891212;75;28714;-49
2022/12/15 07:33:08;;;;;;;2.65;2.45;;;;;;;21.55;37.21;97769.35;1891372;75;28156;-49
2022/12/15 07:35:57;;;;;;;3.52;2.50;;;;;;;21.60;37.04;97757.91;1869193;75;28628;-51
2022/12/15 07:38:50;;;;;;;3.22;2.77;;;;;;;21.65;36.86;97759.28;1881696;75;28052;-48
2022/12/15 07:41:39;;;;;;;2.87;2.60;;;;;;;21.69;36.72;97760.37;1880026;75;28041;-49
2022/12/15 07:44:27;;;;;;;3.80;2.90;;;;;;;21.72;36.67;97744.81;1892741;75;28138;-48
2022/12/15 07:47:16;;;;;;;2.87;2.60;;;;;;;21.75;36.74;97761.22;1899274;75;28087;-51
2022/12/15 07:50:06;;;;;;;2.67;2.47;;;;;;;21.86;36.71;97757.44;1891773;75;28121;-54
2022/12/15 07:52:54;;;;;;;2.70;2.50;;;;;;;22.01;36.43;97753.33;1879890;74;28185;-54
2022/12/15 07:55:43;;;;;;;2.50;2.40;;;;;;;22.16;36.15;97745.15;1881463;74;28115;-51
2022/12/15 07:58:32;;;;;;;2.75;2.47;;;;;;;22.20;35.80;97729.83;1883304;74;28104;-52
2022/12/15 08:01:20;;;;;;;2.65;2.45;;;;;;;22.31;35.64;97721.87;1886926;74;28125;-53
2022/12/15 08:04:09;;;;;;;2.60;2.40;;;;;;;22.37;35.50;97720.80;1884521;74;28536;-49
2022/12/15 08:06:58;;;;;;;2.75;2.50;;;;;;;22.40;35.34;97714.78;1889357;74;32064;-50
2022/12/15 08:09:47;;;;;;;2.40;2.30;;;;;;;22.45;35.22;97713.38;1893729;74;28236;-53
2022/12/15 08:12:35;;;;;;;2.58;2.37;;;;;;;22.49;35.11;97694.51;1842903;77;28148;-53
2022/12/15 08:15:23;;;;;;;2.55;2.35;;;;;;;22.50;35.02;97684.64;1908006;74;28019;-54
2022/12/15 08:18:12;;;;;;;2.60;2.40;;;;;;;22.53;34.92;97681.36;1898374;74;28241;-52
2022/12/15 08:21:09;;;;;;;3.02;2.42;;;;;;;22.56;34.83;97679.98;1884288;74;28097;-51
2022/12/15 08:23:57;;;;;;;2.80;2.35;;;;;;;22.57;34.77;97673.40;1886342;74;28035;-49
2022/12/15 08:26:46;;;;;;;2.40;2.30;;;;;;;22.57;34.72;97670.12;1890375;74;28116;-52
2022/12/15 08:29:35;;;;;;;2.22;2.12;;;;;;;22.56;34.65;97654.81;1894559;74;28045;-54
2022/12/15 08:32:23;;;;;;;2.50;2.33;;;;;;;22.58;34.60;97658.63;1904651;74;28144;-53
2022/12/15 08:35:11;;;;;;;2.37;2.17;;;;;;;22.60;34.55;97658.66;1892524;74;28175;-53
2022/12/15 08:38:01;;;;;;;2.50;2.33;;;;;;;22.62;34.51;97667.95;1897829;74;28104;-52
2022/12/15 08:40:50;;;;;;;2.58;2.25;;;;;;;22.61;34.49;97671.80;1903854;74;28093;-53
2022/12/15 08:43:38;;;;;;;2.65;2.25;;;;;;;22.62;34.44;97680.27;1881502;74;28147;-53
2022/12/15 08:46:29;;;;;;;2.55;2.35;;;;;;;22.65;34.42;97698.87;1906034;74;28031;-51
2022/12/15 08:49:18;;;;;;;2.50;2.30;;;;;;;22.63;34.35;97696.42;1909832;74;28197;-52
2022/12/15 08:52:11;;;;;;;2.37;2.25;;;;;;;22.62;34.36;97704.35;1863964;75;28202;-54
2022/12/15 08:54:59;;;;;;;2.40;2.30;;;;;;;22.63;34.31;97706.55;1858435;75;31106;-53
2022/12/15 08:57:48;;;;;;;2.20;2.00;;;;;;;22.62;34.28;97704.35;1874744;75;28132;-52
2022/12/15 09:00:36;;;;;;;2.20;2.10;;;;;;;22.64;34.27;97704.06;1889978;75;28090;-53
2022/12/15 09:03:26;;;;;;;2.40;2.20;;;;;;;22.63;34.26;97701.07;1880078;75;28069;-52
2022/12/15 09:06:20;;;;;;;2.47;2.27;;;;;;;22.63;34.22;97702.44;1873564;75;38449;-53
2022/12/15 09:09:10;;;;;;;2.40;2.20;;;;;;;22.63;34.15;97707.91;1879073;75;28160;-53
2022/12/15 09:11:59;;;;;;;2.30;2.20;;;;;;;22.64;34.15;97702.69;1867512;75;28194;-51
2022/12/15 09:14:47;;;;;;;2.58;2.30;;;;;;;22.63;34.14;97702.44;1882350;75;28601;-53
2022/12/15 09:17:35;;;;;;;2.30;2.20;;;;;;;22.62;34.11;97696.68;1878325;75;28165;-53
2022/12/15 09:20:24;;;;;;;2.35;2.25;;;;;;;22.64;34.09;97708.16;1865040;76;28168;-51
2022/12/15 09:23:12;;;;;;;2.22;2.02;;;;;;;22.63;34.10;97696.97;1874774;75;28183;-49
2022/12/15 09:26:06;;;;;;;2.40;2.30;;;;;;;22.64;34.06;97683.53;1872332;75;28101;-51
2022/12/15 09:28:55;;;;;;;2.80;2.30;;;;;;;22.65;34.01;97684.64;1868794;75;28237;-48
2022/12/15 09:31:45;;;;;;;3.22;2.20;;;;;;;22.67;33.99;97674.78;1868769;76;28189;-51
2022/12/15 09:34:33;;;;;;;2.20;2.10;;;;;;;22.63;33.99;97664.13;1874931;75;28213;-52
2022/12/15 09:37:22;;;;;;;2.22;2.12;;;;;;;22.64;33.99;97661.64;1866550;75;28105;-51
2022/12/15 09:40:13;;;;;;;2.30;2.20;;;;;;;22.68;33.92;97658.64;1860808;76;28234;-52
2022/12/15 09:43:02;;;;;;;2.20;2.00;;;;;;;22.67;33.92;97656.98;1856579;77;28240;-53
2022/12/15 09:45:59;;;;;;;2.50;2.30;;;;;;;22.67;33.92;97651.52;1851245;77;28157;-51
2022/12/15 09:48:49;;;;;;;2.00;1.90;;;;;;;22.65;33.89;97649.61;1856761;77;28169;-54
2022/12/15 09:51:41;;;;;;;2.20;2.10;;;;;;;22.67;33.86;97650.14;1836313;76;28184;-52
2022/12/15 09:54:32;;;;;;;2.20;2.10;;;;;;;22.64;33.89;97651.52;1860782;76;28222;-52
2022/12/15 09:57:42;;;;;;;2.10;1.90;;;;;;;22.66;33.86;97636.20;1886468;75;28103;-52
2022/12/15 10:00:43;;;;;;;2.20;2.10;;;;;;;22.65;33.86;97624.44;1873598;75;28123;-54
2022/12/15 10:03:51;;;;;;;2.52;2.27;;;;;;;22.64;33.86;97617.31;1861175;75;28168;-54
2022/12/15 10:06:42;;;;;;;2.17;2.08;;;;;;;22.62;33.85;97612.67;1878234;75;28060;-50
2022/12/15 10:09:31;;;;;;;2.30;2.00;;;;;;;22.60;33.82;97603.92;1869130;76;28246;-53
2022/12/15 10:12:25;;;;;;;2.20;2.10;;;;;;;22.62;33.79;97595.42;1875090;75;28171;-53
2022/12/15 10:15:22;;;;;;;2.00;1.90;;;;;;;22.64;33.75;97576.80;1877798;76;28128;-52
2022/12/15 10:18:34;;;;;;;2.10;2.00;;;;;;;22.63;33.75;97582.85;1877292;75;28450;-52
2022/12/15 10:21:26;;;;;;;2.20;2.10;;;;;;;22.64;33.74;97572.70;1872196;76;28175;-53
2022/12/15 10:24:22;;;;;;;2.00;1.90;;;;;;;22.61;33.74;97569.97;1879229;75;28593;-52
2022/12/15 10:27:32;;;;;;;2.10;2.00;;;;;;;22.61;33.71;97555.50;1878852;75;28530;-53
2022/12/15 10:30:28;;;;;;;2.17;2.08;;;;;;;22.61;33.66;97544.55;1876416;75;28188;-53
2022/12/15 10:33:23;;;;;;;2.10;2.00;;;;;;;22.59;33.73;97538.52;1878201;76;28236;-54
2022/12/15 10:36:14;;;;;;;2.10;2.00;;;;;;;22.59;33.72;97531.67;1878153;76;28109;-55
2022/12/15 10:39:03;;;;;;;2.13;2.03;;;;;;;22.61;33.67;97513.88;1878500;75;28214;-51
2022/12/15 10:42:22;;;;;;;2.08;1.98;;;;;;;22.62;33.66;97511.96;1878360;75;28174;-52
2022/12/15 10:45:32;;;;;;;1.90;1.80;;;;;;;22.62;33.63;97501.02;1860093;76;28160;-53
2022/12/15 10:48:20;;;;;;;2.10;2.00;;;;;;;;;;1855667;76;28155;-54
2022/12/15 10:51:25;;;;;;;1.90;1.80;;;;;;;22.66;33.58;97492.53;1920581;72;28204;-49
2022/12/15 10:54:17;;;;;;;2.10;2.00;;;;;;;22.61;33.59;97497.45;1881733;74;28142;-52
2022/12/15 10:57:08;;;;;;;2.42;1.95;;;;;;;22.63;33.61;97499.38;1882838;75;33031;-53
2022/12/15 11:00:14;;;;;;;2.30;2.10;;;;;;;22.61;33.53;97496.66;1877755;75;28183;-49
2022/12/15 11:03:06;;;;;;;2.85;2.10;;;;;;;22.58;33.55;97496.64;1891780;75;28115;-54
2022/12/15 11:05:56;;;;;;;2.33;2.23;;;;;;;22.60;33.57;97502.67;1893776;75;28157;-48
2022/12/15 11:08:46;;;;;;;2.20;2.10;;;;;;;22.64;33.52;97500.17;1900529;75;28075;-51
2022/12/15 11:14:49;;;;;;;2.30;2.10;;;;;;;22.65;33.46;97513.59;1891312;75;28036;-50
2022/12/15 11:17:42;;;;;;;1.90;1.80;;;;;;;22.65;33.42;97522.35;1899036;75;28206;-51
2022/12/15 11:20:34;;;;;;;2.02;1.92;;;;;;;22.63;33.45;97519.91;1889962;75;28128;-53
2022/12/15 11:23:47;;;;;;;2.20;2.00;;;;;;;22.62;33.45;97519.62;1871306;75;28262;-52
2022/12/15 11:26:50;;;;;;;1.90;1.80;;;;;;;22.64;33.45;97511.95;1873702;75;28200;-50
2022/12/15 11:29:55;;;;;;;1.95;1.80;;;;;;;22.63;33.42;97504.03;1869154;75;28240;-49
2022/12/15 11:32:46;;;;;;;1.80;1.70;;;;;;;;;;1876684;75;33123;-54
2022/12/15 11:35:52;;;;;;;2.10;2.00;;;;;;;22.59;33.41;97501.57;1882837;75;28155;-56
2022/12/15 11:38:41;;;;;;;2.10;1.90;;;;;;;;;;1891409;75;28068;-51
2022/12/15 11:41:44;;;;;;;2.08;1.98;;;;;;;22.59;33.43;97496.09;1875611;75;28251;-52
2022/12/15 11:44:35;;;;;;;2.20;2.00;;;;;;;22.61;33.42;97493.92;1890303;75;28052;-54
2022/12/15 11:47:38;;;;;;;1.77;1.67;;;;;;;22.60;33.36;97478.05;1869324;75;28297;-50
2022/12/15 11:50:29;;;;;;;2.02;1.92;;;;;;;;;;1881662;74;32145;-52
2022/12/15 11:53:29;;;;;;;2.10;2.00;;;;;;;22.59;33.41;97472.84;1881560;74;28201;-53
2022/12/15 11:56:29;;;;;;;2.02;1.92;;;;;;;22.59;33.36;97468.73;1907174;74;28068;-53
2022/12/15 11:59:26;;;;;;;1.90;1.80;;;;;;;22.57;33.36;97466.26;1888457;74;28230;-55
2022/12/15 12:02:47;;;;;;;1.98;1.87;;;;;;;22.58;33.39;97469.82;1908237;74;30032;-55
2022/12/15 12:06:04;;;;;;;2.30;2.10;;;;;;;22.57;33.34;97475.84;1878222;74;28631;-51
2022/12/15 12:09:05;;;;;;;2.17;2.08;;;;;;;22.53;33.41;97481.62;1878258;74;28277;-52
2022/12/15 12:12:10;;;;;;;2.30;2.10;;;;;;;22.51;33.47;97470.69;1888968;74;28171;-52
2022/12/15 12:15:26;;;;;;;2.35;2.25;;;;;;;22.53;33.44;97463.83;1893374;74;28206;-53
2022/12/15 12:18:21;;;;;;;2.17;2.08;;;;;;;22.55;33.40;97461.63;1898511;74;28043;-52
2022/12/15 12:21:12;;;;;;;2.40;2.20;;;;;;;22.52;33.43;97453.18;1883560;74;28207;-53
2022/12/15 12:24:20;;;;;;;2.12;2.02;;;;;;;22.54;33.41;97450.97;1881946;74;28190;-53
2022/12/15 12:27:33;;;;;;;2.12;2.02;;;;;;;22.56;33.38;97446.86;1898973;74;28112;-51
2022/12/15 12:30:25;;;;;;;2.10;2.00;;;;;;;22.56;33.36;97444.66;1893471;74;28138;-52
2022/12/15 12:33:32;;;;;;;2.00;1.90;;;;;;;22.56;33.37;97443.30;1892491;74;28073;-53
2022/12/15 12:36:20;;;;;;;2.40;2.20;;;;;;;22.55;33.35;97429.33;1900205;74;28164;-51
2022/12/15 12:39:13;;;;;;;2.22;2.12;;;;;;;22.54;33.40;97418.14;1894870;74;28382;-52
2022/12/15 12:42:13;;;;;;;2.45;2.27;;;;;;;22.55;33.36;97401.97;1885551;74;28116;-56
2022/12/15 12:45:02;;;;;;;2.40;2.20;;;;;;;22.54;33.35;97389.41;1896891;74;28121;-51
2022/12/15 12:47:54;;;;;;;2.52;2.33;;;;;;;22.54;33.35;97385.31;1833385;77;28306;-53
2022/12/15 12:50:42;;;;;;;2.80;2.50;;;;;;;22.54;33.29;97383.36;1838894;76;28649;-51
2022/12/15 12:53:34;;;;;;;2.00;1.90;;;;;;;22.54;33.35;97391.57;1834580;77;28411;-53
2022/12/15 12:56:38;;;;;;;2.65;2.45;;;;;;;22.57;33.32;97400.59;1825902;77;28281;-53
2022/12/15 12:59:32;;;;;;;2.33;2.22;;;;;;;22.58;33.22;97404.15;1831761;77;28454;-51
2022/12/15 13:02:24;;;;;;;2.57;2.37;;;;;;;22.55;33.28;97419.22;1840280;77;28337;-53
2022/12/15 13:05:30;;;;;;;2.42;2.30;;;;;;;22.57;33.32;97409.34;1835335;77;28227;-54
2022/12/15 13:08:22;;;;;;;2.87;2.30;;;;;;;22.55;33.29;97385.02;1838379;77;28213;-51
2022/12/15 13:11:46;;;;;;;2.40;2.20;;;;;;;22.54;33.28;97369.69;1851433;76;28269;-53
2022/12/15 13:14:44;;;;;;;2.20;2.10;;;;;;;22.56;33.26;97376.26;1833183;77;28344;-53
2022/12/15 13:17:35;;;;;;;2.20;2.10;;;;;;;22.50;33.32;97378.20;1843059;76;28231;-52
2022/12/15 13:20:40;;;;;;;2.47;2.27;;;;;;;22.49;33.33;97377.95;1838307;76;28346;-51
2022/12/15 13:23:32;;;;;;;2.45;2.25;;;;;;;22.52;33.33;97380.67;1835671;77;28277;-52
2022/12/15 13:26:21;;;;;;;2.60;2.40;;;;;;;22.51;33.32;97373.02;1841866;77;28365;-51
2022/12/15 13:29:15;;;;;;;2.53;2.33;;;;;;;22.53;33.28;97379.02;1833522;78;28386;-52
2022/12/15 13:32:04;;;;;;;2.33;2.17;;;;;;;22.53;33.30;97366.70;1853902;76;28440;-52
2022/12/15 13:34:54;;;;;;;2.85;2.20;;;;;;;22.52;33.28;97367.78;1854149;76;28288;-52
2022/12/15 13:37:45;;;;;;;2.40;2.30;;;;;;;22.54;33.23;97373.00;1833345;78;28432;-55
2022/12/15 13:40:41;;;;;;;2.58;2.37;;;;;;;22.54;33.30;97375.73;1840445;76;28243;-55
2022/12/15 13:43:35;;;;;;;2.30;2.20;;;;;;;22.55;33.24;97380.08;1841147;77;28257;-53
2022/12/15 13:46:32;;;;;;;2.40;2.20;;;;;;;22.56;33.26;97355.73;1863346;76;28254;-50
2022/12/15 13:49:24;;;;;;;2.10;2.00;;;;;;;22.54;33.27;97326.48;1842707;76;28342;-53
2022/12/15 13:52:15;;;;;;;2.47;2.27;;;;;;;22.52;33.26;97327.32;1839395;77;28392;-51
2022/12/15 13:55:07;;;;;;;2.60;2.40;;;;;;;22.53;33.26;97323.47;1825154;77;28277;-54
2022/12/15 13:58:01;;;;;;;2.40;2.20;;;;;;;22.54;33.27;97325.91;1835008;77;31226;-54
2022/12/15 14:00:57;;;;;;;2.60;2.40;;;;;;;22.53;33.23;97321.55;1896662;75;28126;-52
2022/12/15 14:04:00;;;;;;;2.50;2.30;;;;;;;22.52;33.25;97306.80;1890526;75;28093;-52
2022/12/15 14:07:02;;;;;;;2.67;2.37;;;;;;;22.54;33.22;97304.02;1889344;75;31093;-54
2022/12/15 14:09:51;;;;;;;2.60;2.20;;;;;;;22.53;33.23;97311.16;1868996;76;28212;-51
2022/12/15 14:12:40;;;;;;;2.50;2.20;;;;;;;22.54;33.27;97313.59;1900780;75;28037;-53
2022/12/15 14:15:31;;;;;;;2.40;2.20;;;;;;;22.52;33.31;97312.27;1874897;75;28393;-55
2022/12/15 14:18:26;;;;;;;2.33;2.20;;;;;;;22.52;33.25;97299.39;1869166;76;28197;-53
2022/12/15 14:21:25;;;;;;;2.58;2.37;;;;;;;22.51;33.24;97289.56;1885609;75;28112;-52
2022/12/15 14:24:17;;;;;;;2.30;2.10;;;;;;;22.55;33.24;97296.09;1869137;76;28191;-51
2022/12/15 14:27:06;;;;;;;2.00;1.90;;;;;;;22.51;33.24;97278.62;1891141;75;28117;-53
2022/12/15 14:30:21;;;;;;;2.47;2.27;;;;;;;22.54;33.23;97268.45;1871346;75;28196;-49
2022/12/15 14:33:12;;;;;;;2.50;2.30;;;;;;;22.53;33.22;97266.01;1876855;75;28162;-52
2022/12/15 14:36:02;;;;;;;2.17;2.08;;;;;;;22.48;33.27;97265.50;1888536;75;28084;-54
2022/12/15 14:39:10;;;;;;;2.10;2.00;;;;;;;22.53;33.25;97269.56;1883395;75;28031;-54
2022/12/15 14:42:00;;;;;;;2.40;2.27;;;;;;;22.50;33.22;97269.31;1869268;76;28226;-54
2022/12/15 14:44:50;;;;;;;2.30;2.10;;;;;;;22.50;33.30;97289.83;1897671;75;28046;-52
2022/12/15 14:47:38;;;;;;;2.37;2.17;;;;;;;22.51;33.30;97300.51;1879353;75;28204;-50
2022/12/15 14:50:27;;;;;;;2.92;2.30;;;;;;;22.52;33.30;97317.75;1884691;75;28109;-52
2022/12/15 14:53:18;;;;;;;2.47;2.27;;;;;;;22.53;33.23;97322.09;1883294;74;28136;-53
2022/12/15 14:56:15;;;;;;;2.30;2.10;;;;;;;22.46;33.22;97309.30;1904416;74;28180;-53
2022/12/15 14:59:06;;;;;;;3.15;2.20;;;;;;;22.53;33.24;97325.66;1880201;74;28188;-50
2022/12/15 15:02:00;;;;;;;2.40;2.20;;;;;;;22.52;33.24;97336.90;1875314;74;28125;-53
2022/12/15 15:05:06;;;;;;;2.22;2.12;;;;;;;22.51;33.25;97354.41;1892410;74;28035;-53
2022/12/15 15:07:55;;;;;;;2.60;2.40;;;;;;;22.50;33.25;97354.95;1889687;74;28051;-53
2022/12/15 15:10:44;;;;;;;2.37;2.20;;;;;;;22.51;33.27;97366.72;1888840;74;28083;-55
2022/12/15 15:13:40;;;;;;;2.17;2.08;;;;;;;22.52;33.28;97357.42;1888879;74;28242;-53
2022/12/15 15:16:29;;;;;;;2.33;2.22;;;;;;;22.47;33.23;97324.63;1894675;74;28216;-50
2022/12/15 15:19:21;;;;;;;2.20;2.10;;;;;;;22.50;33.21;97326.77;1891305;74;28154;-53
2022/12/15 15:22:22;;;;;;;2.33;2.23;;;;;;;22.51;33.20;97328.41;1888948;74;28217;-54
2022/12/15 15:25:37;;;;;;;2.33;2.12;;;;;;;22.51;33.29;97335.25;1888667;74;28276;-52
2022/12/15 15:28:40;;;;;;;2.08;1.98;;;;;;;22.51;33.31;97332.52;1889108;74;28162;-54
2022/12/15 15:31:37;;;;;;;2.20;2.00;;;;;;;22.46;33.33;97341.58;1888926;74;28168;-50
2022/12/15 15:34:26;;;;;;;2.35;2.15;;;;;;;22.47;33.32;97348.70;1890485;74;28137;-53
2022/12/15 15:37:24;;;;;;;2.00;1.90;;;;;;;22.48;33.30;97354.97;1878129;76;28288;-52
2022/12/15 15:40:15;;;;;;;2.05;1.95;;;;;;;22.50;33.27;97348.11;1910800;74;28093;-49
2022/12/15 15:43:09;;;;;;;2.60;2.40;;;;;;;22.49;33.28;97334.72;1888949;74;28121;-53
2022/12/15 15:46:07;;;;;;;2.08;1.98;;;;;;;22.51;33.30;97327.87;1888491;74;32203;-53
2022/12/15 15:49:08;;;;;;;2.30;2.20;;;;;;;22.49;33.23;97331.98;1860609;76;28116;-54
2022/12/15 15:51:57;;;;;;;2.25;2.05;;;;;;;22.50;33.25;97333.06;1841146;77;28344;-51
2022/12/15 15:54:46;;;;;;;2.30;2.13;;;;;;;22.50;33.25;97325.40;1842111;77;28293;-53
2022/12/15 15:57:35;;;;;;;2.22;2.12;;;;;;;22.51;33.20;97325.67;1894487;75;28111;-53
2022/12/15 16:00:25;;;;;;;2.00;1.90;;;;;;;22.51;33.24;97322.39;1882290;75;28430;-51
2022/12/15 16:03:13;;;;;;;2.60;2.30;;;;;;;22.51;33.20;97327.05;1882374;75;28134;-52
2022/12/15 16:06:03;;;;;;;2.00;1.90;;;;;;;22.52;33.23;97325.37;1879981;75;28173;-52
2022/12/15 16:08:53;;;;;;;2.17;2.00;;;;;;;22.52;33.19;97321.85;1898895;75;28083;-54
2022/12/15 16:11:41;;;;;;;2.20;2.10;;;;;;;22.50;33.21;97313.91;1887929;75;28028;-53
2022/12/15 16:14:29;;;;;;;1.87;1.77;;;;;;;22.49;33.22;97305.45;1869195;76;28195;-55
2022/12/15 16:17:19;;;;;;;1.82;1.72;;;;;;;22.49;33.21;97301.34;1890808;75;28239;-52
2022/12/15 16:20:08;;;;;;;2.25;2.15;;;;;;;22.50;33.20;97303.52;1870080;75;28121;-54
2022/12/15 16:23:03;;;;;;;2.10;2.00;;;;;;;22.50;33.22;97292.56;1884414;75;28117;-50
2022/12/15 16:25:53;;;;;;;2.27;2.07;;;;;;;22.53;33.21;97295.56;1869163;76;28121;-52
2022/12/15 16:28:42;;;;;;;2.22;2.08;;;;;;;22.50;33.22;97289.28;1898112;75;28119;-53
2022/12/15 16:31:44;;;;;;;2.52;2.10;;;;;;;22.50;33.18;97278.34;1899908;75;28579;-52
2022/12/15 16:34:24;;;;;;;2.20;2.05;;;;;;;22.50;33.22;97285.73;1887691;75;28350;-52
2022/12/15 16:37:27;;;;;;;2.15;2.05;;;;;;;22.47;33.29;97280.30;1881937;75;30078;-56
2022/12/15 16:40:24;;;;;;;2.10;2.00;;;;;;;22.48;33.27;97273.71;1879872;75;28102;-52
2022/12/15 16:43:15;;;;;;;2.70;2.17;;;;;;;22.49;33.25;97271.80;1880063;75;28145;-55
2022/12/15 16:46:04;;;;;;;2.17;2.08;;;;;;;22.50;33.22;97272.05;1879356;75;28211;-50
2022/12/15 16:48:53;;;;;;;2.08;1.98;;;;;;;22.48;33.27;97275.62;1885714;75;28091;-54
2022/12/15 16:51:44;;;;;;;2.37;2.17;;;;;;;22.49;33.26;97281.38;1880096;75;28129;-55
2022/12/15 16:54:33;;;;;;;1.90;1.80;;;;;;;22.49;33.26;97281.38;1895802;75;28274;-53
2022/12/15 16:57:21;;;;;;;2.20;2.05;;;;;;;22.49;33.25;97282.20;1900129;74;28564;-50
2022/12/15 17:00:19;;;;;;;2.03;1.93;;;;;;;22.52;33.26;97280.81;1911238;74;28102;-54
2022/12/15 17:03:13;;;;;;;2.00;1.90;;;;;;;22.50;33.28;97277.52;1890465;74;28100;-53
2022/12/15 17:06:05;;;;;;;2.00;1.90;;;;;;;22.49;33.27;97278.09;1889121;74;28103;-50
2022/12/15 17:08:56;;;;;;;2.02;1.92;;;;;;;22.50;33.25;97276.16;1888803;74;28246;-54
2022/12/15 17:11:45;;;;;;;2.30;2.10;;;;;;;22.49;33.23;97275.91;1890805;74;28176;-54
2022/12/15 17:14:33;;;;;;;2.30;2.10;;;;;;;22.48;33.27;97279.73;1892690;74;28110;-52
2022/12/15 17:17:22;;;;;;;1.92;1.82;;;;;;;22.49;33.29;97273.17;1902263;74;28158;-54
2022/12/15 17:20:14;;;;;;;1.92;1.82;;;;;;;22.48;33.33;97277.00;1899994;74;28043;-51
2022/12/15 17:23:09;;;;;;;2.22;2.02;;;;;;;22.49;33.28;97284.94;1898310;74;28480;-55
2022/12/15 17:25:57;;;;;;;2.10;2.00;;;;;;;22.47;33.25;97280.85;1895652;74;28164;-52
2022/12/15 17:28:46;;;;;;;2.02;1.92;;;;;;;22.50;33.31;97282.98;1887951;74;28104;-53
2022/12/15 17:31:35;;;;;;;2.30;2.10;;;;;;;22.49;33.20;97275.36;1885536;74;28160;-56
2022/12/15 17:34:29;;;;;;;2.08;1.98;;;;;;;22.47;33.27;97276.20;1898269;74;28131;-53
2022/12/15 17:37:18;;;;;;;2.10;2.00;;;;;;;22.47;33.34;97280.30;1895481;74;28193;-56
2022/12/15 17:40:24;;;;;;;1.82;1.72;;;;;;;22.49;33.31;97285.48;1887957;74;28109;-57
2022/12/15 17:43:15;;;;;;;2.08;1.98;;;;;;;22.50;33.25;97284.36;1889253;74;28115;-54
2022/12/15 17:46:03;;;;;;;2.20;2.00;;;;;;;22.49;33.27;97287.67;1889109;74;28182;-51
2022/12/15 17:48:52;;;;;;;2.30;2.10;;;;;;;22.47;33.31;97286.33;1892225;74;28234;-51
2022/12/15 17:51:42;;;;;;;2.15;2.00;;;;;;;22.47;33.29;97282.22;1890917;74;28024;-54
2022/12/15 17:54:31;;;;;;;2.30;2.10;;;;;;;22.47;33.35;97287.69;1888947;74;28047;-53
2022/12/15 17:57:19;;;;;;;2.17;2.08;;;;;;;22.47;33.31;97290.42;1888803;74;28301;-51
2022/12/15 18:00:21;;;;;;;1.95;1.85;;;;;;;22.48;33.31;97286.02;1893125;74;28156;-54
2022/12/15 18:03:09;;;;;;;2.10;2.00;;;;;;;22.47;33.32;97288.52;1893111;74;38425;-52
2022/12/15 18:05:58;;;;;;;2.33;2.12;;;;;;;22.47;33.33;97284.41;1880110;74;28156;-54
2022/12/15 18:08:47;;;;;;;2.00;1.90;;;;;;;22.49;33.32;97286.84;1880769;74;28125;-51
2022/12/15 18:11:35;;;;;;;2.10;2.00;;;;;;;22.49;33.29;97280.01;1892912;74;28156;-54
2022/12/15 18:14:23;;;;;;;1.90;1.80;;;;;;;22.49;33.28;97282.74;1890042;74;28145;-53
2022/12/15 18:17:12;;;;;;;1.98;1.82;;;;;;;22.50;33.31;97281.63;1889123;74;28063;-50
2022/12/15 18:20:03;;;;;;;2.20;2.10;;;;;;;22.47;33.31;97287.69;1889198;74;28246;-54
2022/12/15 18:22:52;;;;;;;2.12;2.02;;;;;;;22.47;33.32;97290.42;1894482;74;28039;-53
2022/12/15 18:25:40;;;;;;;1.90;1.80;;;;;;;22.45;33.33;97294.00;1910827;74;28052;-53
2022/12/15 18:28:31;;;;;;;2.10;1.90;;;;;;;22.46;33.33;97290.14;1889201;74;28256;-54
2022/12/15 18:31:29;;;;;;;2.00;1.90;;;;;;;22.46;33.33;97300.55;1911081;74;28121;-53
2022/12/15 18:34:22;;;;;;;1.90;1.80;;;;;;;22.45;33.35;97302.21;1895442;74;28118;-52
2022/12/15 18:37:17;;;;;;;2.17;2.08;;;;;;;22.44;33.36;97308.77;1890502;74;38506;-51
2022/12/15 18:40:08;;;;;;;1.90;1.80;;;;;;;22.45;33.41;97309.84;1889008;74;28105;-55
2022/12/15 18:42:57;;;;;;;2.10;2.00;;;;;;;22.45;33.37;97311.21;1889068;74;28193;-52
2022/12/15 18:45:46;;;;;;;1.95;1.85;;;;;;;22.46;33.38;97317.50;1910993;74;28137;-53
2022/12/15 18:48:34;;;;;;;1.87;1.77;;;;;;;22.42;33.40;97317.82;1897791;74;28221;-54
2022/12/15 18:51:23;;;;;;;2.27;2.17;;;;;;;22.45;33.42;97324.09;1900186;74;28168;-55
2022/12/15 18:54:17;;;;;;;1.95;1.85;;;;;;;22.46;33.37;97331.19;1900093;74;28089;-54
2022/12/15 18:57:15;;;;;;;2.00;1.90;;;;;;;22.43;33.41;97327.09;1874791;76;28212;-54
2022/12/15 19:00:15;;;;;;;2.10;2.00;;;;;;;22.43;33.41;97327.64;1870206;75;28036;-55
2022/12/15 19:03:03;;;;;;;2.10;2.00;;;;;;;22.44;33.41;97334.76;1890142;75;28260;-53
2022/12/15 19:05:57;;;;;;;2.02;1.92;;;;;;;22.42;33.45;97332.32;1878680;75;28141;-51
2022/12/15 19:08:46;;;;;;;2.10;2.00;;;;;;;22.42;33.42;97328.22;1870781;75;28125;-54
2022/12/15 19:11:34;;;;;;;1.80;1.70;;;;;;;22.43;33.43;97335.30;1901326;75;28036;-54
2022/12/15 19:14:45;;;;;;;2.22;2.02;;;;;;;22.42;33.42;97330.12;1869216;75;28071;-52
2022/12/15 19:23:27;;;;;;;1.90;1.80;;;;;;;22.46;33.41;97333.92;1879468;75;28658;-56
2022/12/15 19:26:16;;;;;;;3.02;2.50;;;;;;;22.42;33.45;97341.07;1888716;75;28208;-50
2022/12/15 19:29:13;;;;;;;2.03;1.93;;;;;;;22.42;33.42;97346.00;1881837;75;28035;-50
2022/12/15 19:32:01;;;;;;;2.70;1.90;;;;;;;22.42;33.61;97343.81;1882709;75;28076;-46
2022/12/15 19:34:50;;;;;;;2.25;2.05;;;;;;;22.41;33.67;97344.89;1875221;75;28113;-50
2022/12/15 19:37:43;;;;;;;2.30;2.20;;;;;;;22.41;33.72;97350.37;1875447;75;28109;-51
2022/12/15 19:40:34;;;;;;;2.15;2.02;;;;;;;22.44;33.73;97357.47;1882888;75;28140;-51
2022/12/15 19:43:25;;;;;;;2.92;1.95;;;;;;;22.45;33.74;97363.19;1878797;75;28209;-47
2022/12/15 19:46:16;;;;;;;1.98;1.87;;;;;;;22.45;33.79;97365.13;1869749;75;28325;-53
2022/12/15 19:49:03;;;;;;;1.90;1.80;;;;;;;22.48;33.81;97363.17;1878407;75;28190;-49
2022/12/15 19:51:52;;;;;;;1.65;1.55;;;;;;;22.51;33.85;97360.70;1868737;75;28128;-51
2022/12/15 19:54:41;;;;;;;1.98;1.87;;;;;;;22.48;33.89;97358.52;1876989;75;28608;-50
2022/12/15 19:57:30;;;;;;;2.00;1.90;;;;;;;22.50;33.95;97358.23;1875605;75;28679;-52
2022/12/15 20:00:21;;;;;;;1.95;1.85;;;;;;;22.54;33.91;97366.95;1873195;75;28172;-52
2022/12/15 20:03:10;;;;;;;2.57;1.90;;;;;;;22.55;33.87;97378.17;1875894;75;28161;-49
2022/12/15 20:06:01;;;;;;;2.02;1.92;;;;;;;22.54;33.92;97389.41;1877902;75;28191;-52
2022/12/15 20:08:51;;;;;;;2.00;1.90;;;;;;;22.57;33.96;97395.66;1858044;75;28220;-48
2022/12/15 20:11:39;;;;;;;2.15;1.95;;;;;;;22.57;33.98;97391.55;1881283;75;28223;-49
2022/12/15 20:14:28;;;;;;;2.05;1.95;;;;;;;22.58;33.97;97375.42;1875944;75;28222;-49
2022/12/15 20:17:17;;;;;;;1.98;1.87;;;;;;;22.59;33.96;97371.59;1876027;75;28027;-51
2022/12/15 20:20:06;;;;;;;2.10;2.00;;;;;;;22.63;33.98;97376.23;1866832;75;28086;-52
2022/12/15 20:22:57;;;;;;;2.20;1.75;;;;;;;22.62;33.99;97384.71;1868901;75;28183;-48
2022/12/15 20:25:46;;;;;;;2.35;2.15;;;;;;;22.64;33.96;97390.72;1866073;75;28117;-48
2022/12/15 20:28:34;;;;;;;1.98;1.87;;;;;;;22.65;33.97;97399.20;1877463;75;28165;-48
2022/12/15 20:31:25;;;;;;;1.95;1.85;;;;;;;22.66;33.98;97408.48;1862937;75;28200;-49
2022/12/15 20:34:13;;;;;;;2.30;2.10;;;;;;;22.69;34.00;97411.20;1885770;75;28094;-49
2022/12/15 20:37:04;;;;;;;2.10;1.90;;;;;;;22.69;34.02;97403.00;1856989;75;28216;-52